createdAt,value
2018-09-27T00:00:52.574Z,8.00
2018-09-27T00:03:21.054Z,8.00
2018-09-27T00:05:49.512Z,8.00
2018-09-27T00:08:17.987Z,7.90
2018-09-27T00:10:46.459Z,8.20
2018-09-27T00:13:14.910Z,8.20
2018-09-27T00:15:43.381Z,8.30
2018-09-27T00:18:11.838Z,8.20
2018-09-27T00:20:40.346Z,8.10
2018-09-27T00:23:08.798Z,8.10
2018-09-27T00:25:37.282Z,8.30
2018-09-27T00:28:05.770Z,8.10
2018-09-27T00:30:34.345Z,7.80
2018-09-27T00:33:02.839Z,7.70
2018-09-27T00:35:31.347Z,7.70
2018-09-27T00:37:59.834Z,7.90
2018-09-27T00:40:28.330Z,7.90
2018-09-27T00:42:56.799Z,7.80
2018-09-27T00:45:25.271Z,7.80
2018-09-27T00:47:53.716Z,7.80
2018-09-27T00:50:22.192Z,7.70
2018-09-27T00:52:51.022Z,7.80
2018-09-27T00:55:19.562Z,7.60
2018-09-27T00:57:48.023Z,7.70
2018-09-27T01:00:16.486Z,7.50
2018-09-27T01:02:45.002Z,7.50
2018-09-27T01:05:13.493Z,7.50
2018-09-27T01:07:41.931Z,7.60
2018-09-27T01:10:10.415Z,7.40
2018-09-27T01:12:38.855Z,7.40
2018-09-27T01:15:07.540Z,7.30
2018-09-27T01:17:35.978Z,7.30
2018-09-27T01:20:04.514Z,7.30
2018-09-27T01:22:32.957Z,7.50
2018-09-27T01:25:01.432Z,7.30
2018-09-27T01:27:30.291Z,7.50
2018-09-27T01:29:58.814Z,7.60
2018-09-27T01:32:27.295Z,7.50
2018-09-27T01:34:55.782Z,7.30
2018-09-27T01:37:24.246Z,7.30
2018-09-27T01:39:58.667Z,7.20
2018-09-27T01:42:27.082Z,7.20
2018-09-27T01:44:55.522Z,7.20
2018-09-27T01:47:23.948Z,7.40
2018-09-27T01:49:52.396Z,7.30
2018-09-27T01:52:20.814Z,7.50
2018-09-27T01:54:49.258Z,7.60
2018-09-27T01:57:17.751Z,7.60
2018-09-27T01:59:46.227Z,7.30
2018-09-27T02:02:14.714Z,7.30
2018-09-27T02:04:43.160Z,7.30
2018-09-27T02:07:11.784Z,7.50
2018-09-27T02:09:40.191Z,7.50
2018-09-27T02:12:08.638Z,7.30
2018-09-27T02:14:37.223Z,7.20
2018-09-27T02:17:05.723Z,7.10
2018-09-27T02:19:34.142Z,7.20
2018-09-27T02:22:02.591Z,7.20
2018-09-27T02:24:31.017Z,7.10
2018-09-27T02:26:59.467Z,7.00
2018-09-27T02:29:27.890Z,7.10
2018-09-27T02:31:56.342Z,7.00
2018-09-27T02:34:24.770Z,7.00
2018-09-27T02:36:53.223Z,7.20
2018-09-27T02:39:21.647Z,7.10
2018-09-27T02:41:50.079Z,7.10
2018-09-27T02:44:18.487Z,7.00
2018-09-27T02:46:46.947Z,7.00
2018-09-27T02:49:15.363Z,7.00
2018-09-27T02:51:43.791Z,7.20
2018-09-27T02:54:12.215Z,7.10
2018-09-27T02:56:40.886Z,6.80
2018-09-27T02:59:09.459Z,6.80
2018-09-27T03:01:37.928Z,7.10
2018-09-27T03:04:06.855Z,7.10
2018-09-27T03:06:35.300Z,6.90
2018-09-27T03:09:04.566Z,6.90
2018-09-27T03:11:33.031Z,6.80
2018-09-27T03:14:01.475Z,6.90
2018-09-27T03:16:29.918Z,6.70
2018-09-27T03:18:58.359Z,6.80
2018-09-27T03:21:26.799Z,6.80
2018-09-27T03:23:55.270Z,6.60
2018-09-27T03:26:23.764Z,6.80
2018-09-27T03:28:52.160Z,6.60
2018-09-27T03:31:20.632Z,6.50
2018-09-27T03:33:49.071Z,6.50
2018-09-27T03:36:17.541Z,6.60
2018-09-27T03:38:46.019Z,6.80
2018-09-27T03:41:14.468Z,6.70
2018-09-27T03:43:42.984Z,6.60
2018-09-27T03:46:11.500Z,6.40
2018-09-27T03:48:39.903Z,6.60
2018-09-27T03:51:08.345Z,6.60
2018-09-27T03:53:36.828Z,6.50
2018-09-27T03:56:05.328Z,6.50
2018-09-27T03:58:33.762Z,6.50
2018-09-27T04:01:02.202Z,6.40
2018-09-27T04:03:30.661Z,6.70
2018-09-27T04:05:59.110Z,6.90
2018-09-27T04:08:27.519Z,6.60
2018-09-27T04:10:56.046Z,6.60
2018-09-27T04:13:24.510Z,6.90
2018-09-27T04:15:52.972Z,6.90
2018-09-27T04:18:21.491Z,6.70
2018-09-27T04:20:52.035Z,6.50
2018-09-27T04:23:22.806Z,6.50
2018-09-27T04:25:51.928Z,6.60
2018-09-27T04:28:21.124Z,6.60
2018-09-27T04:30:49.618Z,6.40
2018-09-27T04:33:18.082Z,6.20
2018-09-27T04:35:46.526Z,6.20
2018-09-27T04:38:14.984Z,6.10
2018-09-27T04:40:43.403Z,6.30
2018-09-27T04:43:11.850Z,6.30
2018-09-27T04:45:40.291Z,6.10
2018-09-27T04:48:08.762Z,6.20
2018-09-27T04:50:37.174Z,6.20
2018-09-27T04:53:05.627Z,6.20
2018-09-27T04:55:34.182Z,6.00
2018-09-27T04:58:02.623Z,6.30
2018-09-27T05:00:31.114Z,6.20
2018-09-27T05:02:59.567Z,6.10
2018-09-27T05:05:28.680Z,6.10
2018-09-27T05:07:57.123Z,6.00
2018-09-27T05:10:25.548Z,6.00
2018-09-27T05:12:54.007Z,6.00
2018-09-27T05:15:22.465Z,6.00
2018-09-27T05:17:50.942Z,6.00
2018-09-27T05:20:19.752Z,6.00
2018-09-27T05:22:48.260Z,6.00
2018-09-27T05:25:16.690Z,6.00
2018-09-27T05:27:45.174Z,6.00
2018-09-27T05:30:13.662Z,6.10
2018-09-27T05:32:42.143Z,6.10
2018-09-27T05:35:10.614Z,6.10
2018-09-27T05:37:39.060Z,6.20
2018-09-27T05:40:07.666Z,6.50
2018-09-27T05:42:36.140Z,6.60
2018-09-27T05:45:06.365Z,6.40
2018-09-27T05:47:34.821Z,6.50
2018-09-27T05:50:03.274Z,6.40
2018-09-27T05:52:31.767Z,6.30
2018-09-27T05:55:00.230Z,6.30
2018-09-27T05:57:28.690Z,6.20
2018-09-27T05:59:57.103Z,6.20
2018-09-27T06:02:26.115Z,6.40
2018-09-27T06:04:54.563Z,6.60
2018-09-27T06:07:23.014Z,6.50
2018-09-27T06:09:51.626Z,6.50
2018-09-27T06:12:20.057Z,6.70
2018-09-27T06:14:48.507Z,6.90
2018-09-27T06:17:17.042Z,6.90
2018-09-27T06:19:45.530Z,6.90
2018-09-27T06:22:13.934Z,6.90
2018-09-27T06:24:42.451Z,6.90
2018-09-27T06:27:10.875Z,7.10
2018-09-27T06:29:39.339Z,7.00
2018-09-27T06:32:07.778Z,7.10
2018-09-27T06:34:36.254Z,7.20
2018-09-27T06:37:04.695Z,7.30
2018-09-27T06:39:33.139Z,7.40
2018-09-27T06:42:01.588Z,7.50
2018-09-27T06:44:30.086Z,7.70
2018-09-27T06:46:58.463Z,7.80
2018-09-27T06:49:26.906Z,7.80
2018-09-27T06:51:55.354Z,7.80
2018-09-27T06:54:23.806Z,8.00
2018-09-27T06:56:52.231Z,8.00
2018-09-27T06:59:20.692Z,8.20
2018-09-27T07:01:49.128Z,8.50
2018-09-27T07:04:17.631Z,8.50
2018-09-27T07:06:46.052Z,8.60
2018-09-27T07:09:14.655Z,8.70
2018-09-27T07:11:43.083Z,8.80
2018-09-27T07:14:11.911Z,9.00
2018-09-27T07:16:40.339Z,9.00
2018-09-27T07:19:09.381Z,9.30
2018-09-27T07:21:37.816Z,9.50
2018-09-27T07:24:06.263Z,9.70
2018-09-27T07:26:34.827Z,10.00
2018-09-27T07:29:03.200Z,10.10
2018-09-27T07:31:38.503Z,10.10
2018-09-27T07:34:07.020Z,10.20
2018-09-27T07:36:35.499Z,10.40
2018-09-27T07:39:05.105Z,10.50
2018-09-27T07:41:33.561Z,10.60
2018-09-27T07:44:02.039Z,10.60
2018-09-27T07:46:30.490Z,10.70
2018-09-27T07:48:58.943Z,10.80
2018-09-27T07:51:27.372Z,11.00
2018-09-27T07:53:56.064Z,11.10
2018-09-27T07:56:24.517Z,11.30
2018-09-27T07:58:52.987Z,11.40
2018-09-27T08:01:21.798Z,11.30
2018-09-27T08:03:50.357Z,11.30
2018-09-27T08:06:18.792Z,11.60
2018-09-27T08:08:47.451Z,11.70
2018-09-27T08:11:15.963Z,11.90
2018-09-27T08:13:44.346Z,12.20
2018-09-27T08:16:12.779Z,12.20
2018-09-27T08:18:41.238Z,12.30
2018-09-27T08:21:09.769Z,12.50
2018-09-27T08:23:38.214Z,12.50
2018-09-27T08:26:06.720Z,12.70
2018-09-27T08:28:35.186Z,12.70
2018-09-27T08:31:03.657Z,12.80
2018-09-27T08:33:32.093Z,13.10
2018-09-27T08:36:00.606Z,13.40
2018-09-27T08:38:29.176Z,13.50
2018-09-27T08:40:57.560Z,13.80
2018-09-27T08:43:25.997Z,14.10
2018-09-27T08:45:54.508Z,14.00
2018-09-27T08:48:22.951Z,14.30
2018-09-27T08:50:51.407Z,14.40
2018-09-27T08:53:19.855Z,14.30
2018-09-27T08:55:48.414Z,14.50
2018-09-27T08:58:16.798Z,14.80
2018-09-27T09:00:45.287Z,15.10
2018-09-27T09:03:13.952Z,15.40
2018-09-27T09:05:42.540Z,15.50
2018-09-27T09:08:10.978Z,15.70
2018-09-27T09:10:39.438Z,15.70
2018-09-27T09:13:08.175Z,15.80
2018-09-27T09:15:36.697Z,16.00
2018-09-27T09:18:05.208Z,16.20
2018-09-27T09:20:33.672Z,16.20
2018-09-27T09:23:02.113Z,16.10
2018-09-27T09:25:30.643Z,16.30
2018-09-27T09:27:59.054Z,16.60
2018-09-27T09:30:27.553Z,16.70
2018-09-27T09:32:55.971Z,17.00
2018-09-27T09:35:24.479Z,17.30
2018-09-27T09:37:52.942Z,17.40
2018-09-27T09:40:21.451Z,17.40
2018-09-27T09:42:49.879Z,17.40
2018-09-27T09:45:18.422Z,17.40
2018-09-27T09:47:46.915Z,17.70
2018-09-27T09:50:15.389Z,18.00
2018-09-27T09:52:43.807Z,18.20
2018-09-27T09:55:12.330Z,18.30
2018-09-27T09:57:40.768Z,18.30
2018-09-27T10:00:09.333Z,18.60
2018-09-27T10:02:37.801Z,18.80
2018-09-27T10:05:06.359Z,18.90
2018-09-27T10:07:34.836Z,19.10
2018-09-27T10:10:03.323Z,19.20
2018-09-27T10:12:31.762Z,19.20
2018-09-27T10:15:00.179Z,19.30
2018-09-27T10:17:28.667Z,19.30
2018-09-27T10:19:57.167Z,19.10
2018-09-27T10:22:25.640Z,19.40
2018-09-27T10:24:54.084Z,19.60
2018-09-27T10:27:22.561Z,19.50
2018-09-27T10:29:51.020Z,19.80
2018-09-27T10:32:19.524Z,19.90
2018-09-27T10:34:47.973Z,20.00
2018-09-27T10:37:16.423Z,20.10
2018-09-27T10:39:44.858Z,20.40
2018-09-27T10:42:13.359Z,20.40
2018-09-27T10:44:41.889Z,20.50
2018-09-27T10:47:10.351Z,20.60
2018-09-27T10:49:38.796Z,20.70
2018-09-27T10:52:07.626Z,20.70
2018-09-27T10:54:36.070Z,20.90
2018-09-27T10:57:04.530Z,20.90
2018-09-27T10:59:33.006Z,21.20
2018-09-27T11:02:01.443Z,21.40
2018-09-27T11:04:29.873Z,21.30
2018-09-27T11:06:58.393Z,21.40
2018-09-27T11:09:26.840Z,21.60
2018-09-27T11:11:55.307Z,21.80
2018-09-27T11:14:23.768Z,21.90
2018-09-27T11:16:52.210Z,21.90
2018-09-27T11:19:20.640Z,22.00
2018-09-27T11:21:49.284Z,22.10
2018-09-27T11:24:17.847Z,22.20
2018-09-27T11:26:46.310Z,22.20
2018-09-27T11:29:20.236Z,22.30
2018-09-27T11:31:53.943Z,22.30
2018-09-27T11:34:22.382Z,22.40
2018-09-27T11:36:50.829Z,22.50
2018-09-27T11:39:19.282Z,22.40
2018-09-27T11:41:47.775Z,22.60
2018-09-27T11:44:16.245Z,22.70
2018-09-27T11:46:44.708Z,22.80
2018-09-27T11:49:13.236Z,22.80
2018-09-27T11:51:41.627Z,22.90
2018-09-27T11:54:10.080Z,22.90
2018-09-27T11:56:38.604Z,23.00
2018-09-27T11:59:07.079Z,23.00
2018-09-27T12:01:35.737Z,23.20
2018-09-27T12:04:04.143Z,23.30
2018-09-27T12:06:32.640Z,23.30
2018-09-27T12:09:01.125Z,23.30
2018-09-27T12:11:29.698Z,23.20
2018-09-27T12:13:58.175Z,23.10
2018-09-27T12:16:26.627Z,23.20
2018-09-27T12:18:55.087Z,23.10
2018-09-27T12:21:23.518Z,23.00
2018-09-27T12:23:52.315Z,23.30
2018-09-27T12:26:20.735Z,23.50
2018-09-27T12:28:49.195Z,23.50
2018-09-27T12:31:17.733Z,23.40
2018-09-27T12:33:46.233Z,23.80
2018-09-27T12:36:14.691Z,23.90
2018-09-27T12:38:43.163Z,23.80
2018-09-27T12:41:11.919Z,24.10
2018-09-27T12:43:40.379Z,24.00
2018-09-27T12:46:09.307Z,24.00
2018-09-27T12:48:37.872Z,24.10
2018-09-27T12:51:06.364Z,24.10
2018-09-27T12:53:34.752Z,24.10
2018-09-27T12:56:03.192Z,23.80
2018-09-27T12:58:31.688Z,24.00
2018-09-27T13:01:00.162Z,24.00
2018-09-27T13:03:28.615Z,24.00
2018-09-27T13:05:57.058Z,24.00
2018-09-27T13:08:25.588Z,24.00
2018-09-27T13:10:53.992Z,24.10
2018-09-27T13:13:22.622Z,24.30
2018-09-27T13:15:51.116Z,24.40
2018-09-27T13:18:19.548Z,24.70
2018-09-27T13:20:48.020Z,24.70
2018-09-27T13:23:16.497Z,24.70
2018-09-27T13:25:45.095Z,24.70
2018-09-27T13:28:13.494Z,24.60
2018-09-27T13:30:41.911Z,24.60
2018-09-27T13:33:10.354Z,24.70
2018-09-27T13:35:38.802Z,24.70
2018-09-27T13:38:07.384Z,24.80
2018-09-27T13:40:35.943Z,24.90
2018-09-27T13:43:04.394Z,24.90
2018-09-27T13:45:32.856Z,24.90
2018-09-27T13:48:01.328Z,24.90
2018-09-27T13:50:29.795Z,25.00
2018-09-27T13:52:58.242Z,25.00
2018-09-27T13:55:26.722Z,25.10
2018-09-27T13:57:55.188Z,25.10
2018-09-27T14:00:23.703Z,25.20
2018-09-27T14:02:52.283Z,25.10
2018-09-27T14:05:20.795Z,24.90
2018-09-27T14:07:49.190Z,25.10
2018-09-27T14:10:17.654Z,24.90
2018-09-27T14:12:46.075Z,24.80
2018-09-27T14:15:14.533Z,24.70
2018-09-27T14:17:42.983Z,24.60
2018-09-27T14:20:11.501Z,24.60
2018-09-27T14:22:40.511Z,24.70
2018-09-27T14:25:08.976Z,24.70
2018-09-27T14:27:37.413Z,24.50
2018-09-27T14:30:05.972Z,24.40
2018-09-27T14:32:34.412Z,24.30
2018-09-27T14:35:02.995Z,24.30
2018-09-27T14:37:31.618Z,24.00
2018-09-27T14:40:00.137Z,24.10
2018-09-27T14:42:28.589Z,24.00
2018-09-27T14:44:57.295Z,24.10
2018-09-27T14:47:25.726Z,24.20
2018-09-27T14:49:54.203Z,24.10
2018-09-27T14:52:22.625Z,24.00
2018-09-27T14:54:51.130Z,23.80
2018-09-27T14:57:19.571Z,23.80
2018-09-27T14:59:48.037Z,23.70
2018-09-27T15:02:16.591Z,23.60
2018-09-27T15:04:45.035Z,23.60
2018-09-27T15:07:13.435Z,23.70
2018-09-27T15:09:41.931Z,23.60
2018-09-27T15:15:12.435Z,23.40
2018-09-27T15:17:40.881Z,23.30
2018-09-27T15:20:09.616Z,23.20
2018-09-27T15:22:38.117Z,23.10
2018-09-27T15:25:06.627Z,23.00
2018-09-27T15:27:35.439Z,22.90
2018-09-27T15:30:04.455Z,22.80
2018-09-27T15:32:33.038Z,22.60
2018-09-27T15:35:01.583Z,22.60
2018-09-27T15:37:30.091Z,22.50
2018-09-27T15:39:58.552Z,22.40
2018-09-27T15:42:27.526Z,22.30
2018-09-27T15:44:56.299Z,22.10
2018-09-27T15:47:25.038Z,22.10
2018-09-27T15:49:53.507Z,22.00
2018-09-27T15:52:21.931Z,22.00
2018-09-27T15:54:50.670Z,21.80
2018-09-27T15:57:19.362Z,21.60
2018-09-27T15:59:48.418Z,21.50
2018-09-27T16:02:19.873Z,21.50
2018-09-27T16:04:48.385Z,21.60
2018-09-27T16:07:16.857Z,21.60
2018-09-27T16:09:45.587Z,21.50
2018-09-27T16:12:14.094Z,21.30
2018-09-27T16:14:42.906Z,21.20
2018-09-27T16:17:11.445Z,21.10
2018-09-27T16:19:40.243Z,21.00
2018-09-27T16:22:08.780Z,20.90
2018-09-27T16:24:37.207Z,20.90
2018-09-27T16:27:06.094Z,20.90
2018-09-27T16:29:34.882Z,20.90
2018-09-27T16:32:03.355Z,20.70
2018-09-27T16:34:31.842Z,20.70
2018-09-27T16:37:00.340Z,20.50
2018-09-27T16:39:28.776Z,20.40
2018-09-27T16:41:57.598Z,20.30
2018-09-27T16:44:26.672Z,20.30
2018-09-27T16:46:55.509Z,20.10
2018-09-27T16:49:24.129Z,19.90
2018-09-27T16:51:52.569Z,19.90
2018-09-27T16:54:21.332Z,19.90
2018-09-27T16:56:49.787Z,19.90
2018-09-27T16:59:18.280Z,19.60
2018-09-27T17:01:46.790Z,19.40
2018-09-27T17:04:15.255Z,19.10
2018-09-27T17:06:43.700Z,18.90
2018-09-27T17:09:12.731Z,18.70
2018-09-27T17:11:41.179Z,18.50
2018-09-27T17:14:09.636Z,18.40
2018-09-27T17:16:38.167Z,18.20
2018-09-27T17:19:06.792Z,18.00
2018-09-27T17:21:35.264Z,17.90
2018-09-27T17:24:03.698Z,17.80
2018-09-27T17:26:32.471Z,17.50
2018-09-27T17:29:00.934Z,17.30
2018-09-27T17:31:29.405Z,17.10
2018-09-27T17:33:57.893Z,16.80
2018-09-27T17:36:26.440Z,16.50
2018-09-27T17:38:54.856Z,16.40
2018-09-27T17:41:23.346Z,16.30
2018-09-27T17:43:51.837Z,16.40
2018-09-27T17:46:21.383Z,16.50
2018-09-27T17:48:50.898Z,16.50
2018-09-27T17:51:19.376Z,16.60
2018-09-27T17:53:48.040Z,16.60
2018-09-27T17:56:16.546Z,16.40
2018-09-27T17:58:45.628Z,16.20
2018-09-27T18:01:14.016Z,16.10
2018-09-27T18:03:42.438Z,15.90
2018-09-27T18:06:10.911Z,15.80
2018-09-27T18:08:39.696Z,15.70
2018-09-27T18:11:08.222Z,15.60
2018-09-27T18:13:36.781Z,15.50
2018-09-27T18:16:05.344Z,15.50
2018-09-27T18:18:34.267Z,15.40
2018-09-27T18:21:02.809Z,15.40
2018-09-27T18:23:31.285Z,15.20
2018-09-27T18:26:00.040Z,15.10
2018-09-27T18:28:28.775Z,15.00
2018-09-27T18:30:57.262Z,15.00
2018-09-27T18:33:25.758Z,14.80
2018-09-27T18:35:54.240Z,14.70
2018-09-27T18:38:22.686Z,14.60
2018-09-27T18:40:51.159Z,14.60
2018-09-27T18:43:19.840Z,14.50
2018-09-27T18:45:48.318Z,14.50
2018-09-27T18:48:17.030Z,14.30
2018-09-27T18:50:45.467Z,14.20
2018-09-27T18:53:14.363Z,14.30
2018-09-27T18:55:43.123Z,14.40
2018-09-27T18:58:11.544Z,14.20
2018-09-27T19:00:40.013Z,14.10
2018-09-27T19:03:08.442Z,14.00
2018-09-27T19:05:37.018Z,14.20
2018-09-27T19:08:05.540Z,14.20
2018-09-27T19:10:34.031Z,13.90
2018-09-27T19:13:02.947Z,13.80
2018-09-27T19:15:31.396Z,13.80
2018-09-27T19:18:00.083Z,13.70
2018-09-27T19:20:28.527Z,13.70
2018-09-27T19:22:56.935Z,13.60
2018-09-27T19:25:25.386Z,13.20
2018-09-27T19:27:53.857Z,13.10
2018-09-27T19:30:23.367Z,13.20
2018-09-27T19:32:51.839Z,13.20
2018-09-27T19:35:20.883Z,13.20
2018-09-27T19:37:49.710Z,13.10
2018-09-27T19:40:18.139Z,13.20
2018-09-27T19:42:46.872Z,13.00
2018-09-27T19:45:15.342Z,12.90
2018-09-27T19:47:43.779Z,13.20
2018-09-27T19:50:12.778Z,13.20
2018-09-27T19:52:41.240Z,13.30
2018-09-27T19:55:09.676Z,13.00
2018-09-27T19:57:38.119Z,13.00
2018-09-27T20:00:06.711Z,13.10
2018-09-27T20:02:35.167Z,13.00
2018-09-27T20:05:03.602Z,13.10
2018-09-27T20:07:32.334Z,13.00
2018-09-27T20:10:01.007Z,12.80
2018-09-27T20:12:29.691Z,12.50
2018-09-27T20:14:58.159Z,12.30
2018-09-27T20:17:26.622Z,12.20
2018-09-27T20:19:55.048Z,12.20
2018-09-27T20:22:23.885Z,12.50
2018-09-27T20:24:52.547Z,12.50
2018-09-27T20:27:21.387Z,12.20
2018-09-27T20:29:49.856Z,12.10
2018-09-27T20:32:18.298Z,12.00
2018-09-27T20:34:46.788Z,11.70
2018-09-27T20:37:15.261Z,11.60
2018-09-27T20:39:43.709Z,11.50
2018-09-27T20:42:12.171Z,11.40
2018-09-27T20:44:40.611Z,11.70
2018-09-27T20:47:09.099Z,11.80
2018-09-27T20:49:37.592Z,12.10
2018-09-27T20:52:06.090Z,12.10
2018-09-27T20:54:34.539Z,12.20
2018-09-27T20:57:03.019Z,12.20
2018-09-27T20:59:31.504Z,12.20
2018-09-27T21:01:59.983Z,12.20
2018-09-27T21:04:28.811Z,12.10
2018-09-27T21:06:57.283Z,12.00
2018-09-27T21:09:26.018Z,11.90
2018-09-27T21:11:54.523Z,11.60
2018-09-27T21:14:22.990Z,11.40
2018-09-27T21:16:51.461Z,11.40
2018-09-27T21:19:19.976Z,11.40
2018-09-27T21:21:48.402Z,11.30
2018-09-27T21:24:16.864Z,11.30
2018-09-27T21:26:45.367Z,11.50
2018-09-27T21:29:13.818Z,11.40
2018-09-27T21:31:42.374Z,11.30
2018-09-27T21:34:11.135Z,11.10
2018-09-27T21:36:39.708Z,11.10
2018-09-27T21:39:08.451Z,11.10
2018-09-27T21:41:36.932Z,11.10
2018-09-27T21:44:05.615Z,10.90
2018-09-27T21:46:34.120Z,10.90
2018-09-27T21:49:02.591Z,10.90
2018-09-27T21:51:31.049Z,11.00
2018-09-27T21:53:59.511Z,11.00
2018-09-27T21:56:27.974Z,11.10
2018-09-27T21:58:56.408Z,11.30
2018-09-27T22:01:24.947Z,11.20
2018-09-27T22:03:53.408Z,10.90
2018-09-27T22:06:21.835Z,10.70
2018-09-27T22:08:50.306Z,10.50
2018-09-27T22:11:18.796Z,10.80
2018-09-27T22:13:47.286Z,10.80
2018-09-27T22:16:15.723Z,10.80
2018-09-27T22:18:44.468Z,10.70
2018-09-27T22:21:12.926Z,10.80
2018-09-27T22:23:41.389Z,10.80
2018-09-27T22:26:09.814Z,10.80
2018-09-27T22:28:38.315Z,10.80
2018-09-27T22:31:07.135Z,11.10
2018-09-27T22:33:35.620Z,11.00
2018-09-27T22:36:04.114Z,10.90
2018-09-27T22:38:32.620Z,10.90
2018-09-27T22:41:01.106Z,10.80
2018-09-27T22:43:29.565Z,10.50
2018-09-27T22:45:58.019Z,10.50
2018-09-27T22:48:26.487Z,10.30
2018-09-27T22:50:54.946Z,10.30
2018-09-27T22:53:23.431Z,10.30
2018-09-27T22:55:51.891Z,10.40
2018-09-27T22:58:20.350Z,10.60
2018-09-27T23:00:48.804Z,10.40
2018-09-27T23:03:17.403Z,10.40
2018-09-27T23:05:45.874Z,10.30
2018-09-27T23:08:14.337Z,10.20
2018-09-27T23:10:42.820Z,10.20
2018-09-27T23:13:11.308Z,10.20
2018-09-27T23:15:39.754Z,10.30
2018-09-27T23:18:08.353Z,10.10
2018-09-27T23:20:36.812Z,10.20
2018-09-27T23:23:05.326Z,10.30
2018-09-27T23:25:33.770Z,10.40
2018-09-27T23:28:02.236Z,10.30
2018-09-27T23:30:30.700Z,10.50
2018-09-27T23:32:59.151Z,10.20
2018-09-27T23:35:27.614Z,10.10
2018-09-27T23:37:56.067Z,10.00
2018-09-27T23:40:24.502Z,9.80
2018-09-27T23:42:52.958Z,9.70
2018-09-27T23:45:21.439Z,9.60
2018-09-27T23:47:49.942Z,9.60
2018-09-27T23:50:18.418Z,9.60
2018-09-27T23:52:46.879Z,9.60
2018-09-27T23:55:15.346Z,9.50
2018-09-27T23:57:43.821Z,9.50
